DENVER INTL

KDEN (DEN)
Denver, Colorado
Towered

Vatsim Metar:
KDEN 202002Z 30012KT 2SM -SN BR BKN005 OVC009 01/M01 A3025 RMK AO2 SFC VIS 6 SNB02 P0000 T00111011

DENVER INTL ATC

DENYS - 0.000 - Yannik EDDM
DENSB - 0.000 - Sven EDVE

Traffic

Inbound:
Ident
Type
Name
ETA
Phase
SWA198
B739
Robert Klein KDEN
Deplaning
CJC1220
DH8D
Alex Will KABQ
20:16 Z
Descent
BRE1415
E190
Hunter H. KTXK
20:22 Z
Descent
UAL1095
A320
Ross Piscoran KDPA
20:21 Z
Descent
SWA2203
B737
Jason Edgeron KDTW
20:25 Z
Descent
SWA5232
B38M
James Field EGCC
20:45 Z
Cruse
UAL1260
B738
Jack Soeth KBJC
20:45 Z
Cruse
SWA1676
B38M
Josh EGNT
20:55 Z
Cruse
SWA5451
B737
Pete Wise KMHK
20:57 Z
Cruse
UAL1385
A320
Justin U KJFK
Boarding
DAL686
B738
Armand DeLalla KFRG
20:54 Z
Cruse
UAL1191
A320
Ryland B KDEN
21:03 Z
Cruse
N10ES
CL60
Evan McSweeny KAPA
21:13 Z
Climb
SWA3769
B737
Fredric Greenblott KBLI
21:22 Z
Cruse
NKS587
A20N
James Lang EGPF
23:04 Z
Cruse
BAW219V
B789
Jon EGKK
22:48 Z
Cruse
NCP750
C750
1304575 KONT
Boarding
DLH128
A320
Dan Denker EDDH
23:30 Z
Descent

Outbound:
Ident
Type
Name
Destination
Phase
UAL1468
B738
Blake R KFNL
KSBA
Boarding
UAL644
B772
Grayson Dehner KAUS
KPDX
Climb
UAL1303
B737
Brody Greer KSFO
KEUG
Climb
SWA1324
B738
Kyle Girouard KMHT
KDAL
Climb
UAL240
B789
Carter Crone CYBW
CYVR
Climb

SIDs

STARS

Alternate Minimums

Hot Spots